Time;durP1;ratioP1;P1;durP2;ratioP2;P2;SDS_P1;SDS_P2;PMS_P1;PMS_P2;Temp;Humidity;BMP_temperature;BMP_pressure;BME280_temperature;BME280_humidity;BME280_pressure;Samples;Min_cycle;Max_cycle;Signal;HPM_P1;HPM_P2
2023/09/21 00:01:13;;;;;;;3.53;2.45;;;;;;;;;;5030982;28;20433;-77
2023/09/21 00:03:40;;;;;;;4.43;2.20;;;;;;;;;;5047296;28;20499;-77
2023/09/21 00:06:08;;;;;;;3.42;2.20;;;;;;;;;;5047723;28;20438;-78
2023/09/21 00:08:35;;;;;;;5.60;2.30;;;;;;;;;;5031950;28;20430;-78
2023/09/21 00:11:06;;;;;;;4.90;2.50;;;;;;;;;;5031521;28;20446;-77
2023/09/21 00:13:33;;;;;;;4.00;2.20;;;;;;;;;;5047395;28;20481;-77
2023/09/21 00:16:02;;;;;;;2.67;2.05;;;;;;;;;;5028674;28;20431;-78
2023/09/21 00:18:29;;;;;;;1.95;1.83;;;;;;;;;;5045592;28;20839;-77
2023/09/21 00:21:00;;;;;;;3.47;1.73;;;;;;;;;;5046808;28;20466;-77
2023/09/21 00:23:31;;;;;;;3.13;2.00;;;;;;;;;;5042156;28;20434;-77
2023/09/21 00:26:00;;;;;;;3.00;2.22;;;;;;;;;;5040607;28;20524;-77
2023/09/21 00:28:30;;;;;;;4.20;2.43;;;;;;;;;;5046874;28;20434;-77
2023/09/21 00:30:58;;;;;;;3.30;2.30;;;;;;;;;;5045971;28;20899;-77
2023/09/21 00:33:26;;;;;;;2.90;2.10;;;;;;;;;;5032097;28;20435;-77
2023/09/21 00:35:55;;;;;;;3.77;2.20;;;;;;;;;;5024539;28;20435;-77
2023/09/21 00:38:25;;;;;;;2.65;2.10;;;;;;;;;;5032254;28;20554;-77
2023/09/21 00:41:00;;;;;;;2.90;1.92;;;;;;;;;;5030322;28;20450;-78
2023/09/21 00:43:28;;;;;;;6.27;2.27;;;;;;;;;;5046152;28;20510;-77
2023/09/21 00:45:57;;;;;;;2.90;2.20;;;;;;;;;;5029659;28;20438;-76
2023/09/21 00:48:36;;;;;;;2.08;1.98;;;;;;;;;;5030962;28;20439;-77
2023/09/21 00:51:07;;;;;;;3.88;2.17;;;;;;;;;;5042371;28;21120;-77
2023/09/21 00:53:36;;;;;;;5.30;2.30;;;;;;;;;;5042664;28;20514;-77
2023/09/21 00:56:12;;;;;;;4.13;2.50;;;;;;;;;;5029028;28;20814;-77
2023/09/21 00:58:48;;;;;;;2.80;2.15;;;;;;;;;;5027611;28;20557;-76
2023/09/21 01:01:16;;;;;;;2.63;1.77;;;;;;;;;;5029237;28;20485;-77
2023/09/21 01:03:44;;;;;;;2.05;1.85;;;;;;;;;;5029008;28;20450;-77
2023/09/21 01:06:11;;;;;;;2.65;2.20;;;;;;;;;;5020321;28;20948;-77
2023/09/21 01:08:39;;;;;;;2.10;1.73;;;;;;;;;;5028919;28;20441;-77
2023/09/21 01:11:14;;;;;;;3.22;2.05;;;;;;;;;;5028932;28;20529;-77
2023/09/21 01:13:42;;;;;;;2.22;1.83;;;;;;;;;;5045133;28;20443;-77
2023/09/21 01:16:11;;;;;;;3.22;2.30;;;;;;;;;;5026821;28;20510;-77
2023/09/21 01:18:40;;;;;;;2.00;1.90;;;;;;;;;;5025822;28;20485;-77
2023/09/21 01:21:10;;;;;;;2.85;2.15;;;;;;;;;;5029008;28;20489;-77
2023/09/21 01:23:42;;;;;;;3.17;2.10;;;;;;;;;;5028247;28;20532;-77
2023/09/21 01:26:13;;;;;;;2.78;2.08;;;;;;;;;;5029121;28;20827;-77
2023/09/21 01:28:41;;;;;;;5.00;2.33;;;;;;;;;;5029353;28;20909;-78
2023/09/21 01:31:13;;;;;;;2.67;1.95;;;;;;;;;;5029617;28;20436;-77
2023/09/21 01:33:44;;;;;;;3.22;2.00;;;;;;;;;;5045228;28;20488;-78
2023/09/21 01:36:15;;;;;;;2.30;2.10;;;;;;;;;;5030354;28;21160;-77
2023/09/21 01:38:46;;;;;;;2.78;2.03;;;;;;;;;;5044156;28;20459;-78
2023/09/21 01:41:18;;;;;;;3.70;2.22;;;;;;;;;;5029611;28;20435;-78
2023/09/21 01:43:46;;;;;;;2.35;1.98;;;;;;;;;;5045375;28;20453;-77
2023/09/21 01:46:18;;;;;;;2.10;1.90;;;;;;;;;;5030173;28;20500;-77
2023/09/21 01:48:46;;;;;;;2.38;2.17;;;;;;;;;;5030323;28;20785;-78
2023/09/21 01:51:16;;;;;;;2.83;2.10;;;;;;;;;;5043741;28;20434;-77
2023/09/21 01:53:45;;;;;;;5.00;2.00;;;;;;;;;;5023029;28;20952;-78
2023/09/21 01:56:13;;;;;;;2.53;2.17;;;;;;;;;;5029812;28;21011;-77
2023/09/21 01:58:40;;;;;;;3.33;1.80;;;;;;;;;;5045243;28;20438;-77
2023/09/21 02:01:08;;;;;;;2.03;1.88;;;;;;;;;;5026291;28;20441;-77
2023/09/21 02:03:37;;;;;;;2.95;2.20;;;;;;;;;;5039128;28;20546;-77
2023/09/21 02:06:05;;;;;;;3.63;1.90;;;;;;;;;;5028739;28;20484;-77
2023/09/21 02:08:33;;;;;;;2.63;2.42;;;;;;;;;;5022406;28;20447;-77
2023/09/21 02:11:00;;;;;;;2.20;2.00;;;;;;;;;;5029088;28;20516;-78
2023/09/21 02:13:28;;;;;;;3.30;2.15;;;;;;;;;;5045206;28;20476;-77
2023/09/21 02:15:55;;;;;;;2.65;1.98;;;;;;;;;;5029563;28;20430;-77
2023/09/21 02:18:30;;;;;;;2.40;2.20;;;;;;;;;;5029021;28;20438;-77
2023/09/21 02:21:01;;;;;;;3.00;2.05;;;;;;;;;;5028745;28;21222;-77
2023/09/21 02:23:30;;;;;;;2.47;2.28;;;;;;;;;;5029271;28;20426;-77
2023/09/21 02:25:57;;;;;;;2.30;2.10;;;;;;;;;;5028366;28;20784;-77
2023/09/21 02:28:27;;;;;;;2.50;2.27;;;;;;;;;;5029366;28;20885;-77
2023/09/21 02:30:54;;;;;;;4.43;2.70;;;;;;;;;;5027409;28;20520;-78
2023/09/21 02:33:29;;;;;;;2.60;2.40;;;;;;;;;;5044306;28;20973;-77
2023/09/21 02:35:57;;;;;;;3.05;2.60;;;;;;;;;;5043666;28;20437;-77
2023/09/21 02:38:25;;;;;;;2.80;2.50;;;;;;;;;;5029273;28;20509;-77
2023/09/21 02:40:53;;;;;;;2.38;2.20;;;;;;;;;;5025672;28;20730;-77
2023/09/21 02:43:20;;;;;;;3.78;2.40;;;;;;;;;;5028460;28;20471;-78
2023/09/21 02:45:56;;;;;;;2.83;2.30;;;;;;;;;;5028315;28;20469;-78
2023/09/21 02:48:26;;;;;;;2.30;2.00;;;;;;;;;;5044552;28;20526;-78
2023/09/21 02:50:55;;;;;;;3.20;2.30;;;;;;;;;;5030332;28;20488;-78
2023/09/21 02:53:23;;;;;;;2.80;2.00;;;;;;;;;;5044309;28;20433;-77
2023/09/21 02:55:53;;;;;;;3.83;2.10;;;;;;;;;;5027772;28;20518;-78
2023/09/21 02:58:20;;;;;;;2.35;2.15;;;;;;;;;;5027482;28;20518;-78
2023/09/21 03:00:49;;;;;;;2.60;2.33;;;;;;;;;;5028452;28;23146;-78
2023/09/21 03:03:19;;;;;;;4.88;2.50;;;;;;;;;;5028850;28;20430;-78
2023/09/21 03:05:52;;;;;;;2.83;2.55;;;;;;;;;;5029030;28;20481;-78
2023/09/21 03:08:22;;;;;;;3.47;2.80;;;;;;;;;;5029327;28;20447;-77
2023/09/21 03:10:52;;;;;;;5.63;2.58;;;;;;;;;;5043074;28;20439;-78
2023/09/21 03:13:22;;;;;;;3.90;2.60;;;;;;;;;;5036944;28;20427;-77
2023/09/21 03:15:50;;;;;;;3.00;2.70;;;;;;;;;;5029365;28;20414;-78
2023/09/21 03:18:24;;;;;;;2.60;2.40;;;;;;;;;;5031025;28;20430;-77
2023/09/21 03:20:52;;;;;;;3.80;2.67;;;;;;;;;;5032259;28;20438;-78
2023/09/21 03:23:20;;;;;;;3.53;2.97;;;;;;;;;;5032519;28;20463;-78
2023/09/21 03:25:49;;;;;;;3.13;2.40;;;;;;;;;;5032051;28;20453;-78
2023/09/21 03:28:17;;;;;;;2.83;2.60;;;;;;;;;;5030703;28;20945;-78
2023/09/21 03:30:46;;;;;;;4.43;2.97;;;;;;;;;;5032441;28;20932;-78
2023/09/21 03:33:15;;;;;;;2.70;2.50;;;;;;;;;;5032324;28;20504;-78
2023/09/21 03:35:43;;;;;;;2.63;2.42;;;;;;;;;;5046173;28;20485;-78
2023/09/21 03:38:14;;;;;;;2.45;2.25;;;;;;;;;;5032447;28;20833;-78
2023/09/21 03:40:45;;;;;;;3.33;2.83;;;;;;;;;;5047068;28;21101;-78
2023/09/21 03:43:18;;;;;;;3.38;2.58;;;;;;;;;;5029050;28;20436;-78
2023/09/21 03:45:46;;;;;;;3.53;2.40;;;;;;;;;;5028584;28;20457;-78
2023/09/21 03:48:16;;;;;;;3.67;2.70;;;;;;;;;;5032027;28;21009;-78
2023/09/21 03:50:44;;;;;;;5.10;2.78;;;;;;;;;;5029194;28;20432;-77
2023/09/21 03:53:11;;;;;;;5.30;3.00;;;;;;;;;;5046205;28;20494;-78
2023/09/21 03:55:41;;;;;;;2.80;2.60;;;;;;;;;;5032669;28;20459;-78
2023/09/21 03:58:08;;;;;;;3.90;3.08;;;;;;;;;;5047194;28;20449;-78
2023/09/21 04:00:36;;;;;;;3.90;2.90;;;;;;;;;;5047238;28;20964;-77
2023/09/21 04:03:11;;;;;;;5.13;3.10;;;;;;;;;;5045887;28;20496;-78
2023/09/21 04:05:40;;;;;;;2.95;2.63;;;;;;;;;;5032016;28;20816;-78
2023/09/21 04:08:08;;;;;;;3.67;2.92;;;;;;;;;;5031247;28;20438;-78
2023/09/21 04:10:42;;;;;;;5.20;2.80;;;;;;;;;;5046932;28;20521;-77
2023/09/21 04:13:16;;;;;;;3.58;2.88;;;;;;;;;;5046287;28;20427;-78
2023/09/21 04:15:44;;;;;;;3.53;2.38;;;;;;;;;;5046519;28;20510;-78
2023/09/21 04:18:11;;;;;;;3.00;2.70;;;;;;;;;;5032186;28;20438;-78
2023/09/21 04:20:40;;;;;;;3.20;2.65;;;;;;;;;;5030531;28;20917;-78
2023/09/21 04:23:08;;;;;;;3.97;2.90;;;;;;;;;;5046759;28;20438;-78
2023/09/21 04:25:36;;;;;;;3.30;2.45;;;;;;;;;;5032518;28;20438;-77
2023/09/21 04:28:05;;;;;;;3.50;2.70;;;;;;;;;;5046174;28;20431;-77
2023/09/21 04:30:34;;;;;;;2.90;2.67;;;;;;;;;;5031524;28;21337;-77
2023/09/21 04:33:02;;;;;;;4.53;2.78;;;;;;;;;;5040594;28;20464;-78
2023/09/21 04:35:29;;;;;;;3.75;3.10;;;;;;;;;;5032138;28;20434;-78
2023/09/21 04:37:58;;;;;;;3.00;2.70;;;;;;;;;;5040587;28;20480;-78
2023/09/21 04:40:26;;;;;;;3.20;2.63;;;;;;;;;;5046979;28;20485;-78
2023/09/21 04:42:53;;;;;;;4.10;2.63;;;;;;;;;;5030572;28;20435;-78
2023/09/21 04:45:22;;;;;;;3.63;2.70;;;;;;;;;;5046264;28;20904;-78
2023/09/21 04:47:52;;;;;;;3.50;2.90;;;;;;;;;;5046120;28;20449;-78
2023/09/21 04:50:20;;;;;;;3.00;2.67;;;;;;;;;;5031323;28;20991;-78
2023/09/21 04:52:51;;;;;;;3.03;2.40;;;;;;;;;;5030818;28;20500;-78
2023/09/21 04:55:18;;;;;;;5.55;2.78;;;;;;;;;;5030081;28;20439;-78
2023/09/21 04:57:46;;;;;;;3.30;3.00;;;;;;;;;;5046566;28;20447;-78
2023/09/21 05:00:14;;;;;;;3.83;2.72;;;;;;;;;;5028069;28;20431;-78
2023/09/21 05:02:43;;;;;;;6.07;2.63;;;;;;;;;;5029528;28;20466;-77
2023/09/21 05:05:13;;;;;;;3.40;2.58;;;;;;;;;;5046744;28;20426;-78
2023/09/21 05:07:43;;;;;;;3.38;2.55;;;;;;;;;;5028526;28;20473;-78
2023/09/21 05:10:13;;;;;;;3.33;2.78;;;;;;;;;;5043940;28;20462;-77
2023/09/21 05:12:43;;;;;;;3.15;2.47;;;;;;;;;;5031680;28;20427;-78
2023/09/21 05:15:14;;;;;;;3.08;2.70;;;;;;;;;;5029339;28;20462;-77
2023/09/21 05:17:42;;;;;;;4.07;2.95;;;;;;;;;;5031236;28;20921;-78
2023/09/21 05:20:10;;;;;;;3.80;3.28;;;;;;;;;;5030221;28;20484;-78
2023/09/21 05:22:40;;;;;;;4.00;2.90;;;;;;;;;;5031207;28;20427;-77
2023/09/21 05:25:09;;;;;;;3.15;2.70;;;;;;;;;;5044138;28;20436;-77
2023/09/21 05:27:41;;;;;;;4.65;2.53;;;;;;;;;;5031406;28;20450;-77
2023/09/21 05:30:11;;;;;;;3.45;2.80;;;;;;;;;;5045698;28;20431;-77
2023/09/21 05:32:39;;;;;;;3.33;2.63;;;;;;;;;;5045403;28;20441;-76
2023/09/21 05:35:15;;;;;;;4.75;3.00;;;;;;;;;;5045946;28;20443;-77
2023/09/21 05:37:42;;;;;;;3.60;3.00;;;;;;;;;;5029958;28;20526;-77
2023/09/21 05:40:11;;;;;;;3.50;2.97;;;;;;;;;;5029654;28;20981;-77
2023/09/21 05:42:39;;;;;;;3.70;2.70;;;;;;;;;;5044361;28;20441;-77
2023/09/21 05:45:06;;;;;;;5.60;2.80;;;;;;;;;;5028143;28;21040;-77
2023/09/21 05:47:37;;;;;;;2.88;2.50;;;;;;;;;;5030540;28;20429;-77
2023/09/21 05:50:07;;;;;;;6.03;2.70;;;;;;;;;;5026430;28;20506;-77
2023/09/21 05:52:41;;;;;;;2.95;2.22;;;;;;;;;;5044357;28;20438;-77
2023/09/21 05:55:10;;;;;;;3.80;2.55;;;;;;;;;;5030671;28;20954;-77
2023/09/21 05:57:39;;;;;;;4.28;2.47;;;;;;;;;;5043687;28;20465;-77
2023/09/21 06:00:08;;;;;;;4.00;3.03;;;;;;;;;;5028293;28;21069;-77
2023/09/21 06:02:35;;;;;;;5.20;2.88;;;;;;;;;;5043536;28;21136;-77
2023/09/21 06:05:03;;;;;;;3.28;2.30;;;;;;;;;;5028952;28;20516;-77
2023/09/21 06:07:31;;;;;;;4.28;2.63;;;;;;;;;;5029830;28;20443;-77
2023/09/21 06:09:58;;;;;;;6.43;3.00;;;;;;;;;;5029266;28;20435;-77
2023/09/21 06:12:27;;;;;;;3.60;3.03;;;;;;;;;;5045677;28;20443;-78
2023/09/21 06:14:58;;;;;;;3.10;2.80;;;;;;;;;;5043972;28;20435;-77
2023/09/21 06:17:26;;;;;;;3.15;2.78;;;;;;;;;;5043829;28;20529;-77
2023/09/21 06:19:53;;;;;;;6.60;2.60;;;;;;;;;;5029063;28;20454;-77
2023/09/21 06:22:20;;;;;;;3.55;2.65;;;;;;;;;;5027694;28;20530;-77
2023/09/21 06:24:48;;;;;;;5.85;3.00;;;;;;;;;;5044333;28;20438;-77
2023/09/21 06:27:16;;;;;;;5.82;3.15;;;;;;;;;;5032037;28;20854;-77
2023/09/21 06:29:44;;;;;;;4.10;2.70;;;;;;;;;;5033157;28;20434;-77
2023/09/21 06:32:11;;;;;;;6.88;3.50;;;;;;;;;;5027949;28;20431;-78
2023/09/21 06:34:45;;;;;;;5.03;2.70;;;;;;;;;;5028925;28;20462;-78
2023/09/21 06:37:12;;;;;;;4.53;2.90;;;;;;;;;;5022232;28;20427;-77
2023/09/21 06:39:40;;;;;;;6.80;2.92;;;;;;;;;;5029192;28;20477;-78
2023/09/21 06:42:07;;;;;;;7.32;2.72;;;;;;;;;;5029362;28;20431;-78
2023/09/21 06:44:35;;;;;;;3.10;2.80;;;;;;;;;;5042760;28;20516;-77
2023/09/21 06:47:03;;;;;;;3.88;2.75;;;;;;;;;;5018826;28;20500;-77
2023/09/21 06:49:30;;;;;;;5.28;2.80;;;;;;;;;;5029437;28;20529;-77
2023/09/21 06:52:01;;;;;;;3.25;2.80;;;;;;;;;;5027870;28;20533;-77
2023/09/21 06:54:29;;;;;;;3.17;2.40;;;;;;;;;;5029903;28;20462;-77
2023/09/21 06:57:08;;;;;;;4.95;2.90;;;;;;;;;;5028994;28;20446;-77
2023/09/21 06:59:35;;;;;;;3.17;2.75;;;;;;;;;;5024734;28;20435;-77
2023/09/21 07:02:05;;;;;;;4.63;2.78;;;;;;;;;;5028558;28;20461;-78
2023/09/21 07:04:37;;;;;;;4.13;2.70;;;;;;;;;;5029458;28;20438;-77
2023/09/21 07:07:06;;;;;;;3.50;2.65;;;;;;;;;;5023883;28;20523;-77
2023/09/21 07:09:35;;;;;;;4.70;2.80;;;;;;;;;;5027156;28;20435;-77
2023/09/21 07:12:03;;;;;;;4.13;2.93;;;;;;;;;;5028021;28;20435;-78
2023/09/21 07:14:32;;;;;;;8.27;3.13;;;;;;;;;;5041512;28;20900;-78
2023/09/21 07:17:00;;;;;;;3.53;2.83;;;;;;;;;;5024603;28;20547;-78
2023/09/21 07:19:40;;;;;;;3.40;2.50;;;;;;;;;;5029162;28;20954;-78
2023/09/21 07:22:07;;;;;;;4.53;3.10;;;;;;;;;;5021392;28;20439;-78
2023/09/21 07:24:36;;;;;;;2.80;2.60;;;;;;;;;;5034702;28;20473;-78
2023/09/21 07:27:11;;;;;;;2.92;2.72;;;;;;;;;;5042399;28;20447;-77
2023/09/21 07:29:39;;;;;;;4.55;2.90;;;;;;;;;;5044161;28;20438;-78
2023/09/21 07:32:10;;;;;;;3.90;3.03;;;;;;;;;;5028002;28;20949;-77
2023/09/21 07:34:38;;;;;;;3.22;2.58;;;;;;;;;;5028828;28;20450;-78
2023/09/21 07:37:05;;;;;;;3.47;2.83;;;;;;;;;;5043419;28;20479;-77
2023/09/21 07:39:33;;;;;;;3.85;2.72;;;;;;;;;;5038009;28;20877;-77
2023/09/21 07:42:04;;;;;;;4.30;2.83;;;;;;;;;;5042712;28;20477;-77
2023/09/21 07:44:35;;;;;;;5.57;2.92;;;;;;;;;;5029334;28;20454;-78
2023/09/21 07:47:02;;;;;;;3.35;2.75;;;;;;;;;;5025754;28;20435;-78
2023/09/21 07:49:32;;;;;;;3.90;2.50;;;;;;;;;;5028281;28;20477;-77
2023/09/21 07:51:59;;;;;;;4.03;2.95;;;;;;;;;;5027444;28;20434;-78
2023/09/21 07:54:29;;;;;;;5.95;3.08;;;;;;;;;;5042754;28;20511;-78
2023/09/21 07:56:57;;;;;;;5.83;3.03;;;;;;;;;;5029047;28;20441;-77
2023/09/21 07:59:24;;;;;;;7.90;3.00;;;;;;;;;;5027139;28;20447;-78
2023/09/21 08:01:53;;;;;;;3.13;2.83;;;;;;;;;;5044267;28;20434;-78
2023/09/21 08:04:21;;;;;;;6.70;3.20;;;;;;;;;;5028495;28;20523;-77
2023/09/21 08:06:49;;;;;;;3.90;2.72;;;;;;;;;;5043794;28;20532;-77
2023/09/21 08:09:18;;;;;;;3.60;2.60;;;;;;;;;;5046954;28;20439;-78
2023/09/21 08:11:52;;;;;;;3.47;2.63;;;;;;;;;;5047018;28;20437;-77
2023/09/21 08:14:19;;;;;;;3.03;2.70;;;;;;;;;;5032182;28;20508;-77
2023/09/21 08:16:49;;;;;;;4.53;2.80;;;;;;;;;;5026439;28;20486;-78
2023/09/21 08:19:20;;;;;;;4.70;2.90;;;;;;;;;;5031384;28;20549;-77
2023/09/21 08:21:49;;;;;;;3.42;2.78;;;;;;;;;;5031952;28;20864;-78
2023/09/21 08:24:22;;;;;;;6.13;2.70;;;;;;;;;;5032908;28;20438;-77
2023/09/21 08:26:52;;;;;;;4.15;2.60;;;;;;;;;;5031876;28;20470;-78
2023/09/21 08:29:21;;;;;;;3.53;2.72;;;;;;;;;;5045089;28;20427;-77
2023/09/21 08:31:48;;;;;;;3.63;2.75;;;;;;;;;;5047502;28;20550;-78
2023/09/21 08:34:16;;;;;;;4.60;2.70;;;;;;;;;;5047717;28;20438;-77
2023/09/21 08:36:44;;;;;;;4.30;3.17;;;;;;;;;;5044414;28;20431;-78
2023/09/21 08:39:11;;;;;;;4.18;2.80;;;;;;;;;;5047912;28;20524;-78
2023/09/21 08:41:42;;;;;;;4.65;2.50;;;;;;;;;;5047539;28;20461;-78
2023/09/21 08:44:09;;;;;;;4.85;2.75;;;;;;;;;;5031719;28;20453;-77
2023/09/21 08:46:38;;;;;;;4.47;2.70;;;;;;;;;;5044318;28;20437;-78
2023/09/21 08:49:09;;;;;;;6.07;3.03;;;;;;;;;;5029662;28;20526;-78
2023/09/21 08:51:38;;;;;;;3.78;2.65;;;;;;;;;;5027346;28;20506;-77
2023/09/21 08:54:10;;;;;;;6.30;2.90;;;;;;;;;;5031025;28;20422;-78
2023/09/21 08:56:37;;;;;;;8.07;2.97;;;;;;;;;;5025437;28;20518;-78
2023/09/21 08:59:06;;;;;;;5.32;2.90;;;;;;;;;;5034302;28;20582;-78
2023/09/21 09:01:34;;;;;;;4.20;2.47;;;;;;;;;;5032985;28;20476;-77
2023/09/21 09:04:01;;;;;;;5.10;3.03;;;;;;;;;;5040413;28;20442;-77
2023/09/21 09:06:34;;;;;;;5.13;2.92;;;;;;;;;;5041976;28;21245;-77
2023/09/21 09:09:02;;;;;;;6.55;3.25;;;;;;;;;;5045788;28;20435;-78
2023/09/21 09:11:40;;;;;;;6.65;3.45;;;;;;;;;;5031415;28;20437;-77
2023/09/21 09:14:27;;;;;;;5.45;3.42;;;;;;;;;;5024149;28;20502;-78
2023/09/21 09:17:13;;;;;;;6.13;3.10;;;;;;;;;;5027389;28;20431;-77
2023/09/21 09:19:46;;;;;;;5.55;2.90;;;;;;;;;;5021964;28;20443;-77
2023/09/21 09:22:16;;;;;;;5.27;2.90;;;;;;;;;;5038822;28;20527;-77
2023/09/21 09:24:53;;;;;;;5.72;2.50;;;;;;;;;;5025512;28;20441;-78
2023/09/21 09:27:20;;;;;;;5.90;2.78;;;;;;;;;;5030640;28;20495;-77
2023/09/21 09:29:54;;;;;;;6.45;3.13;;;;;;;;;;5046444;28;20435;-78
2023/09/21 09:32:23;;;;;;;4.63;2.90;;;;;;;;;;5044058;28;20427;-78
2023/09/21 09:34:53;;;;;;;5.97;2.90;;;;;;;;;;5046068;28;20426;-78
2023/09/21 09:37:21;;;;;;;3.92;2.63;;;;;;;;;;5030308;28;20440;-78
2023/09/21 09:39:51;;;;;;;7.10;3.00;;;;;;;;;;5025172;28;20518;-78
2023/09/21 09:42:19;;;;;;;6.40;2.25;;;;;;;;;;5030211;28;20469;-78
2023/09/21 09:44:50;;;;;;;5.82;2.50;;;;;;;;;;5028318;28;20447;-78
2023/09/21 09:47:21;;;;;;;4.77;2.70;;;;;;;;;;5029958;28;20521;-78
2023/09/21 09:49:51;;;;;;;3.10;2.33;;;;;;;;;;5022179;28;20923;-78
2023/09/21 09:52:20;;;;;;;2.80;2.55;;;;;;;;;;5028912;28;20766;-78
2023/09/21 09:54:51;;;;;;;2.83;2.38;;;;;;;;;;5044808;28;20454;-78
2023/09/21 09:57:22;;;;;;;4.88;2.60;;;;;;;;;;5029559;28;20438;-78
2023/09/21 09:59:52;;;;;;;6.15;2.65;;;;;;;;;;5044903;28;20439;-79
2023/09/21 10:02:20;;;;;;;3.63;2.67;;;;;;;;;;5024351;28;20435;-78
2023/09/21 10:04:48;;;;;;;6.35;2.40;;;;;;;;;;5043545;28;20430;-78
2023/09/21 10:07:17;;;;;;;4.83;2.40;;;;;;;;;;5029477;28;20486;-78
2023/09/21 10:09:45;;;;;;;3.13;2.17;;;;;;;;;;5026297;28;20514;-78
2023/09/21 10:12:13;;;;;;;3.83;1.93;;;;;;;;;;5027579;28;20440;-78
2023/09/21 10:14:44;;;;;;;2.17;1.98;;;;;;;;;;5027780;28;20509;-77
2023/09/21 10:17:23;;;;;;;3.05;2.28;;;;;;;;;;5029859;28;20423;-77
2023/09/21 10:19:51;;;;;;;2.95;2.33;;;;;;;;;;5028661;28;21159;-77
2023/09/21 10:22:28;;;;;;;3.42;2.78;;;;;;;;;;5021731;28;20523;-78
2023/09/21 10:24:58;;;;;;;5.00;2.22;;;;;;;;;;5018017;28;20478;-78
2023/09/21 10:27:28;;;;;;;2.67;2.20;;;;;;;;;;5042733;28;20487;-79
2023/09/21 10:30:06;;;;;;;3.45;2.05;;;;;;;;;;5024094;28;20460;-78
2023/09/21 10:32:48;;;;;;;5.50;2.20;;;;;;;;;;5027283;28;20462;-78
2023/09/21 10:35:21;;;;;;;2.97;2.25;;;;;;;;;;5040910;28;20435;-78
2023/09/21 10:37:52;;;;;;;3.83;1.98;;;;;;;;;;5026570;28;20757;-78
2023/09/21 10:40:26;;;;;;;3.90;2.20;;;;;;;;;;5028408;28;20489;-78
2023/09/21 10:42:53;;;;;;;2.03;1.70;;;;;;;;;;5014739;28;20465;-78
2023/09/21 10:45:22;;;;;;;3.13;1.85;;;;;;;;;;5026797;28;20442;-78
2023/09/21 10:47:52;;;;;;;5.30;1.75;;;;;;;;;;5028954;28;20923;-78
2023/09/21 10:50:21;;;;;;;2.33;1.60;;;;;;;;;;5028919;28;20492;-78
2023/09/21 10:52:50;;;;;;;4.13;1.75;;;;;;;;;;5043290;28;20439;-77
2023/09/21 10:55:19;;;;;;;2.13;1.92;;;;;;;;;;5022220;28;20435;-78
2023/09/21 10:57:50;;;;;;;2.05;1.83;;;;;;;;;;5043355;28;20498;-78
2023/09/21 11:00:20;;;;;;;6.17;5.50;;;;;;;;;;5043756;28;20955;-78
2023/09/21 11:02:49;;;;;;;1010.53;904.78;;;;;;;;;;5040314;28;20452;-78
2023/09/21 11:05:18;;;;;;;677.20;609.42;;;;;;;;;;5025236;28;20514;-78
2023/09/21 11:07:47;;;;;;;889.65;791.25;;;;;;;;;;5022836;28;20793;-78
2023/09/21 11:10:16;;;;;;;1.48;1.38;;;;;;;;;;5028343;28;20833;-78
2023/09/21 11:12:45;;;;;;;907.35;815.75;;;;;;;;;;5027175;28;21040;-78
2023/09/21 11:15:16;;;;;;;982.28;815.67;;;;;;;;;;5028040;28;21178;-78
2023/09/21 11:17:46;;;;;;;970.30;794.58;;;;;;;;;;5027946;28;20431;-77
2023/09/21 11:20:20;;;;;;;828.03;750.05;;;;;;;;;;5027980;28;20422;-77
2023/09/21 11:22:49;;;;;;;994.22;817.90;;;;;;;;;;5021704;28;20442;-78
2023/09/21 11:25:21;;;;;;;957.42;780.80;;;;;;;;;;5042343;28;20822;-77
2023/09/21 11:27:49;;;;;;;21.08;19.45;;;;;;;;;;5023569;28;20446;-78
2023/09/21 11:30:16;;;;;;;983.05;804.00;;;;;;;;;;5039768;28;20851;-78
2023/09/21 11:32:46;;;;;;;469.88;423.75;;;;;;;;;;5027485;28;20502;-77
2023/09/21 11:35:17;;;;;;;851.67;766.90;;;;;;;;;;5024723;28;20462;-78
2023/09/21 11:37:46;;;;;;;961.53;852.38;;;;;;;;;;5028492;28;20441;-78
2023/09/21 11:40:14;;;;;;;977.80;806.13;;;;;;;;;;5044599;28;20431;-78
2023/09/21 11:42:47;;;;;;;988.53;819.87;;;;;;;;;;5029385;28;20515;-78
2023/09/21 11:45:20;;;;;;;985.38;815.25;;;;;;;;;;5031222;28;20436;-78
2023/09/21 11:47:59;;;;;;;956.80;791.23;;;;;;;;;;5024389;28;20750;-77
2023/09/21 11:50:30;;;;;;;963.63;802.00;;;;;;;;;;5029181;28;20473;-76
2023/09/21 11:53:07;;;;;;;948.90;780.28;;;;;;;;;;5030073;28;20435;-77
2023/09/21 11:55:36;;;;;;;950.30;784.03;;;;;;;;;;5025658;28;20437;-76
2023/09/21 11:58:07;;;;;;;931.03;768.03;;;;;;;;;;5025708;28;20527;-76
2023/09/21 12:00:44;;;;;;;944.80;785.92;;;;;;;;;;5026960;28;20986;-77
2023/09/21 12:03:17;;;;;;;935.83;780.30;;;;;;;;;;5018792;28;20466;-77
2023/09/21 12:05:45;;;;;;;941.13;790.15;;;;;;;;;;5029360;28;20435;-79
2023/09/21 12:08:14;;;;;;;926.85;770.55;;;;;;;;;;5022197;28;20514;-76
2023/09/21 12:10:42;;;;;;;907.85;736.97;;;;;;;;;;5028342;28;20442;-77
2023/09/21 12:13:12;;;;;;;906.63;742.40;;;;;;;;;;5029848;28;20440;-77
2023/09/21 12:15:40;;;;;;;880.53;694.47;;;;;;;;;;5029527;28;20431;-78
2023/09/21 12:18:10;;;;;;;936.60;817.95;;;;;;;;;;5042468;28;20663;-77
2023/09/21 12:20:44;;;;;;;445.05;406.67;;;;;;;;;;5027622;28;20430;-77
2023/09/21 12:23:12;;;;;;;937.65;816.65;;;;;;;;;;5039012;28;20505;-78
2023/09/21 12:25:42;;;;;;;962.50;781.58;;;;;;;;;;5030939;28;20887;-77
2023/09/21 12:28:11;;;;;;;958.63;789.03;;;;;;;;;;5031857;28;20438;-78
2023/09/21 12:30:42;;;;;;;957.20;783.00;;;;;;;;;;5026660;28;21195;-78
2023/09/21 12:33:11;;;;;;;942.00;777.15;;;;;;;;;;5027581;28;20434;-76
2023/09/21 12:35:52;;;;;;;835.83;764.25;;;;;;;;;;5025041;28;20435;-77
2023/09/21 12:38:19;;;;;;;937.30;837.88;;;;;;;;;;5029620;28;20457;-77
2023/09/21 12:40:47;;;;;;;902.50;823.65;;;;;;;;;;5030275;28;20489;-77
2023/09/21 12:43:16;;;;;;;1029.07;890.80;;;;;;;;;;5033875;28;20452;-78
2023/09/21 12:45:43;;;;;;;1026.50;887.60;;;;;;;;;;5029894;28;20516;-77
2023/09/21 12:48:13;;;;;;;1002.03;871.28;;;;;;;;;;5045830;28;20437;-76
2023/09/21 12:50:40;;;;;;;1000.20;849.25;;;;;;;;;;5029970;28;20457;-77
2023/09/21 12:53:10;;;;;;;992.85;846.63;;;;;;;;;;5045920;28;20574;-77
2023/09/21 12:55:40;;;;;;;984.30;834.63;;;;;;;;;;5023617;28;20433;-76
2023/09/21 12:58:11;;;;;;;961.00;812.40;;;;;;;;;;5038864;28;20904;-76
2023/09/21 13:00:44;;;;;;;955.25;803.60;;;;;;;;;;5025906;28;20940;-76
2023/09/21 13:03:12;;;;;;;935.92;781.22;;;;;;;;;;5028762;28;20450;-76
2023/09/21 13:05:43;;;;;;;934.88;768.80;;;;;;;;;;5043203;28;20788;-76
2023/09/21 13:08:12;;;;;;;934.67;778.58;;;;;;;;;;5040694;28;20464;-77
2023/09/21 13:10:43;;;;;;;935.47;788.58;;;;;;;;;;5040815;28;20508;-76
2023/09/21 13:13:11;;;;;;;934.65;787.60;;;;;;;;;;5024533;28;20492;-76
2023/09/21 13:15:39;;;;;;;952.22;786.63;;;;;;;;;;5028400;28;20435;-78
2023/09/21 13:18:07;;;;;;;936.40;774.63;;;;;;;;;;5045224;28;20494;-76
2023/09/21 13:20:34;;;;;;;924.42;753.63;;;;;;;;;;5023417;28;20489;-77
2023/09/21 13:23:05;;;;;;;927.47;761.40;;;;;;;;;;5029493;28;20435;-76
2023/09/21 13:25:32;;;;;;;941.30;763.83;;;;;;;;;;5042795;28;20440;-76
2023/09/21 13:27:59;;;;;;;925.63;754.40;;;;;;;;;;5044296;28;20443;-77
2023/09/21 13:30:26;;;;;;;917.28;745.10;;;;;;;;;;5045099;28;20451;-78
2023/09/21 13:32:54;;;;;;;907.10;728.03;;;;;;;;;;5044457;28;20745;-77
2023/09/21 13:35:21;;;;;;;912.75;734.40;;;;;;;;;;5026247;28;20431;-77
2023/09/21 13:37:49;;;;;;;906.97;729.17;;;;;;;;;;5024976;28;20518;-77
2023/09/21 13:40:16;;;;;;;904.08;737.80;;;;;;;;;;5025032;28;20913;-77
2023/09/21 13:42:44;;;;;;;905.72;750.72;;;;;;;;;;5029396;28;20427;-77
2023/09/21 13:45:12;;;;;;;903.17;743.55;;;;;;;;;;5029001;28;20742;-77
2023/09/21 13:47:40;;;;;;;905.60;745.08;;;;;;;;;;5029407;28;20510;-77
2023/09/21 13:50:08;;;;;;;905.97;744.42;;;;;;;;;;5029357;28;20904;-77
2023/09/21 13:52:36;;;;;;;899.60;734.50;;;;;;;;;;5044015;28;20928;-77
2023/09/21 13:55:04;;;;;;;909.78;780.78;;;;;;;;;;5041293;28;20437;-77
2023/09/21 13:57:43;;;;;;;912.75;779.67;;;;;;;;;;5025443;28;20450;-77
2023/09/21 14:00:12;;;;;;;908.92;768.22;;;;;;;;;;5024708;28;20596;-77
2023/09/21 14:02:46;;;;;;;910.17;780.25;;;;;;;;;;5028889;28;20419;-77
2023/09/21 14:05:14;;;;;;;906.85;774.03;;;;;;;;;;5043602;28;20426;-77
2023/09/21 14:07:47;;;;;;;891.17;729.13;;;;;;;;;;5028896;28;20477;-75
2023/09/21 14:10:14;;;;;;;894.17;735.00;;;;;;;;;;5026848;28;20528;-77
2023/09/21 14:12:42;;;;;;;881.08;721.50;;;;;;;;;;5026464;28;20546;-77
2023/09/21 14:15:09;;;;;;;884.30;738.10;;;;;;;;;;5029790;28;20466;-77
2023/09/21 14:17:39;;;;;;;905.65;739.42;;;;;;;;;;5042716;28;20465;-77
2023/09/21 14:20:08;;;;;;;896.35;758.85;;;;;;;;;;5028672;28;20458;-77
2023/09/21 14:22:42;;;;;;;899.10;754.85;;;;;;;;;;5042157;28;20496;-77
2023/09/21 14:25:09;;;;;;;896.73;747.83;;;;;;;;;;5026876;28;20782;-77
2023/09/21 14:27:37;;;;;;;885.30;707.67;;;;;;;;;;5028363;28;20435;-78
2023/09/21 14:30:04;;;;;;;892.85;729.05;;;;;;;;;;5028269;28;20459;-78
2023/09/21 14:32:35;;;;;;;893.45;725.33;;;;;;;;;;5035250;28;20435;-76
2023/09/21 14:35:06;;;;;;;896.53;743.13;;;;;;;;;;5028243;28;20917;-78
2023/09/21 14:37:33;;;;;;;896.47;734.13;;;;;;;;;;5038774;28;20462;-77
2023/09/21 14:40:01;;;;;;;899.35;760.95;;;;;;;;;;5028124;28;20514;-78
2023/09/21 14:42:29;;;;;;;902.40;733.38;;;;;;;;;;5026908;28;20435;-78
2023/09/21 14:44:56;;;;;;;892.97;743.05;;;;;;;;;;5028873;28;20435;-78